createdAt,value
2023-12-28T00:03:16.502Z,4.77
2023-12-28T00:08:18.627Z,4.71
2023-12-28T00:13:20.769Z,4.80
2023-12-28T00:18:23.773Z,4.74
2023-12-28T00:23:26.288Z,4.71
2023-12-28T00:28:28.371Z,4.79
2023-12-28T00:33:30.517Z,4.69
2023-12-28T00:38:32.659Z,4.66
2023-12-28T00:43:35.047Z,4.60
2023-12-28T00:48:37.285Z,4.68
2023-12-28T00:53:39.617Z,4.58
2023-12-28T00:58:42.227Z,4.54
2023-12-28T01:03:44.588Z,4.55
2023-12-28T01:08:46.776Z,4.55
2023-12-28T01:13:48.910Z,4.35
2023-12-28T01:18:51.192Z,4.09
2023-12-28T01:23:53.460Z,4.00
2023-12-28T01:28:55.673Z,4.00
2023-12-28T01:33:57.948Z,3.80
2023-12-28T01:39:00.167Z,3.66
2023-12-28T01:44:02.323Z,3.59
2023-12-28T01:49:06.075Z,3.48
2023-12-28T01:54:08.416Z,3.40
2023-12-28T01:59:10.590Z,3.31
2023-12-28T02:04:13.869Z,3.39
2023-12-28T02:09:16.077Z,3.28
2023-12-28T02:14:18.700Z,3.27
2023-12-28T02:19:56.832Z,3.31
2023-12-28T02:25:09.714Z,3.20
2023-12-28T02:30:12.824Z,3.15
2023-12-28T02:35:23.089Z,3.15
2023-12-28T02:40:27.502Z,2.94
2023-12-28T02:45:29.791Z,2.96
2023-12-28T02:50:34.979Z,2.95
2023-12-28T02:55:37.078Z,2.84
2023-12-28T03:00:39.281Z,2.92
2023-12-28T03:05:42.426Z,2.88
2023-12-28T03:10:44.718Z,2.76
2023-12-28T03:15:46.871Z,2.65
2023-12-28T03:20:48.973Z,2.53
2023-12-28T03:25:51.171Z,2.50
2023-12-28T03:30:53.417Z,2.53
2023-12-28T03:35:55.630Z,2.56
2023-12-28T03:40:57.716Z,2.44
2023-12-28T03:45:59.826Z,2.38
2023-12-28T03:51:01.977Z,2.32
2023-12-28T03:56:04.289Z,2.31
2023-12-28T04:01:06.466Z,2.28
2023-12-28T04:06:08.588Z,2.21
2023-12-28T04:11:10.992Z,2.30
2023-12-28T04:16:14.382Z,2.26
2023-12-28T04:21:16.806Z,2.17
2023-12-28T04:26:20.849Z,2.24
2023-12-28T04:31:23.043Z,2.17
2023-12-28T04:36:25.780Z,2.12
2023-12-28T04:41:27.850Z,2.10
2023-12-28T04:46:30.034Z,2.02
2023-12-28T04:51:32.155Z,1.92
2023-12-28T04:56:34.284Z,1.81
2023-12-28T05:01:45.068Z,1.81
2023-12-28T05:06:47.326Z,1.69
2023-12-28T05:11:49.486Z,1.72
2023-12-28T05:16:51.623Z,1.64
2023-12-28T05:21:53.903Z,1.55
2023-12-28T05:26:56.081Z,1.59
2023-12-28T05:31:58.221Z,1.57
2023-12-28T05:37:00.402Z,1.40
2023-12-28T05:42:02.665Z,1.47
2023-12-28T05:47:05.028Z,1.46
2023-12-28T05:52:08.323Z,1.49
2023-12-28T05:57:10.787Z,1.40
2023-12-28T06:02:12.927Z,1.41
2023-12-28T06:07:15.052Z,1.35
2023-12-28T06:12:17.534Z,1.44
2023-12-28T06:17:19.960Z,1.43
2023-12-28T06:22:22.151Z,1.43
2023-12-28T06:27:27.322Z,1.41
2023-12-28T06:32:31.396Z,1.38
2023-12-28T06:37:33.773Z,1.32
2023-12-28T06:42:35.942Z,1.26
2023-12-28T06:47:38.523Z,1.23
2023-12-28T06:52:40.690Z,1.22
2023-12-28T06:57:42.865Z,1.29
2023-12-28T07:02:45.031Z,1.40
2023-12-28T07:07:47.314Z,1.38
2023-12-28T07:12:49.513Z,1.41
2023-12-28T07:17:52.037Z,1.51
2023-12-28T07:22:55.031Z,1.57
2023-12-28T07:27:57.743Z,1.74
2023-12-28T07:33:00.216Z,1.75
2023-12-28T07:38:02.845Z,1.72
2023-12-28T07:43:05.115Z,1.93
2023-12-28T07:48:07.811Z,2.07
2023-12-28T07:53:10.238Z,2.24
2023-12-28T07:58:12.349Z,2.52
2023-12-28T08:03:16.787Z,2.77
2023-12-28T08:08:19.026Z,2.96
2023-12-28T08:13:22.464Z,3.17
2023-12-28T08:18:25.047Z,3.45
2023-12-28T08:23:27.314Z,3.92
2023-12-28T08:28:29.831Z,4.19
2023-12-28T08:33:32.130Z,4.39
2023-12-28T08:38:34.490Z,4.68
2023-12-28T08:43:37.706Z,5.03
2023-12-28T08:48:40.147Z,5.27
2023-12-28T08:53:42.741Z,5.55
2023-12-28T08:58:45.693Z,5.68
2023-12-28T09:03:52.834Z,5.93
2023-12-28T09:08:55.336Z,6.06
2023-12-28T09:13:58.184Z,6.34
2023-12-28T09:19:00.568Z,6.37
2023-12-28T09:24:03.831Z,6.42
2023-12-28T09:29:05.926Z,6.49
2023-12-28T09:34:08.250Z,6.69
2023-12-28T09:39:10.826Z,6.72
2023-12-28T09:44:13.876Z,6.80
2023-12-28T09:49:17.435Z,7.22
2023-12-28T09:54:19.816Z,7.83
2023-12-28T09:59:22.201Z,8.38
2023-12-28T10:04:24.803Z,12.18
2023-12-28T10:09:28.107Z,14.77
2023-12-28T10:14:30.390Z,17.43
2023-12-28T10:19:33.250Z,21.22
2023-12-28T10:24:35.570Z,21.03
2023-12-28T10:29:37.836Z,20.59
2023-12-28T10:34:40.458Z,21.11
2023-12-28T10:39:52.880Z,23.06
2023-12-28T10:45:02.622Z,24.94
2023-12-28T10:50:07.186Z,27.10
2023-12-28T10:55:21.619Z,28.73
2023-12-28T11:00:31.954Z,29.85
2023-12-28T11:05:36.371Z,31.36
2023-12-28T11:10:39.857Z,31.50
2023-12-28T11:15:42.505Z,31.19
2023-12-28T11:20:45.385Z,31.32
2023-12-28T11:25:47.598Z,32.12
2023-12-28T11:30:50.218Z,31.87
2023-12-28T11:35:53.588Z,31.69
2023-12-28T11:40:58.381Z,33.23
2023-12-28T11:46:01.595Z,31.80
2023-12-28T11:51:04.432Z,31.56
2023-12-28T11:56:10.417Z,33.00
2023-12-28T12:01:13.165Z,21.95
2023-12-28T12:06:15.373Z,29.97
2023-12-28T12:11:19.640Z,29.92
2023-12-28T12:16:21.863Z,30.85
2023-12-28T12:21:25.384Z,32.10
2023-12-28T12:26:28.001Z,31.32
2023-12-28T12:31:30.351Z,28.30
2023-12-28T12:36:32.781Z,27.87
2023-12-28T12:41:35.390Z,26.52
2023-12-28T12:46:37.518Z,22.79
2023-12-28T12:51:39.909Z,19.86
2023-12-28T12:56:46.708Z,18.98
2023-12-28T13:01:53.787Z,17.60
2023-12-28T13:06:56.012Z,17.69
2023-12-28T13:11:58.896Z,15.50
2023-12-28T13:17:01.024Z,14.22
2023-12-28T13:22:03.398Z,12.99
2023-12-28T13:27:05.731Z,12.64
2023-12-28T13:32:07.854Z,11.91
2023-12-28T13:37:10.074Z,11.13
2023-12-28T13:42:12.175Z,11.18
2023-12-28T13:47:14.232Z,10.76
2023-12-28T13:52:16.314Z,10.54
2023-12-28T13:57:18.420Z,9.96
2023-12-28T14:02:22.807Z,10.02
2023-12-28T14:07:25.831Z,9.89
2023-12-28T14:12:28.067Z,9.65
2023-12-28T14:17:31.477Z,9.35
2023-12-28T14:22:34.099Z,9.24
2023-12-28T14:27:36.582Z,9.10
2023-12-28T14:32:39.197Z,9.04
2023-12-28T14:37:41.412Z,8.91
2023-12-28T14:42:43.529Z,8.65
2023-12-28T14:47:46.368Z,8.61
2023-12-28T14:52:48.842Z,8.59
2023-12-28T14:57:50.958Z,8.39
2023-12-28T15:02:53.055Z,8.25
2023-12-28T15:07:55.227Z,8.14
2023-12-28T15:12:57.709Z,8.07
2023-12-28T15:18:00.745Z,7.96
2023-12-28T15:23:03.675Z,7.79
2023-12-28T15:28:07.221Z,7.78
2023-12-28T15:33:09.533Z,7.60
2023-12-28T15:38:11.749Z,7.48
2023-12-28T15:43:13.863Z,7.45
2023-12-28T15:48:16.167Z,7.28
2023-12-28T15:53:18.731Z,6.97
2023-12-28T15:58:23.544Z,6.88
2023-12-28T16:03:25.695Z,6.81
2023-12-28T16:08:27.879Z,6.37
2023-12-28T16:13:30.061Z,6.24
2023-12-28T16:18:32.695Z,6.01
2023-12-28T16:23:35.526Z,5.73
2023-12-28T16:28:37.955Z,5.62
2023-12-28T16:33:40.262Z,5.61
2023-12-28T16:38:42.734Z,5.41
2023-12-28T16:43:44.935Z,5.38
2023-12-28T16:48:47.214Z,5.16
2023-12-28T16:53:49.672Z,5.14
2023-12-28T16:58:51.796Z,4.90
2023-12-28T17:03:54.467Z,5.01
2023-12-28T17:08:56.745Z,4.93
2023-12-28T17:13:59.070Z,4.83
2023-12-28T17:19:01.701Z,4.85
2023-12-28T17:24:07.477Z,4.81
2023-12-28T17:29:11.353Z,4.74
2023-12-28T17:34:13.940Z,4.72
2023-12-28T17:39:16.613Z,4.62
2023-12-28T17:44:25.777Z,4.49
2023-12-28T17:49:29.987Z,4.37
2023-12-28T17:54:32.366Z,4.41
2023-12-28T17:59:34.504Z,4.26
2023-12-28T18:04:36.695Z,4.17
2023-12-28T18:09:41.836Z,4.17
2023-12-28T18:14:44.186Z,4.09
2023-12-28T18:19:47.252Z,4.04
2023-12-28T18:24:50.986Z,4.04
2023-12-28T18:29:54.454Z,4.01
2023-12-28T18:34:56.830Z,3.88
2023-12-28T18:39:59.020Z,3.83
2023-12-28T18:45:01.270Z,3.67
2023-12-28T18:50:03.818Z,3.51
2023-12-28T18:55:06.651Z,3.56
2023-12-28T19:00:09.380Z,3.57
2023-12-28T19:05:11.596Z,3.57
2023-12-28T19:10:13.812Z,3.40
2023-12-28T19:15:18.340Z,3.37
2023-12-28T19:20:20.690Z,3.41
2023-12-28T19:25:22.901Z,3.24
2023-12-28T19:30:25.249Z,3.29
2023-12-28T19:35:27.361Z,3.23
2023-12-28T19:40:29.495Z,3.07
2023-12-28T19:45:31.679Z,3.13
2023-12-28T19:50:33.890Z,3.02
2023-12-28T19:55:36.062Z,3.00
2023-12-28T20:00:39.708Z,3.01
2023-12-28T20:05:41.990Z,2.99
2023-12-28T20:10:44.248Z,2.82
2023-12-28T20:15:48.068Z,2.75
2023-12-28T20:20:52.334Z,2.73
2023-12-28T20:25:54.468Z,2.64
2023-12-28T20:30:56.699Z,2.55
2023-12-28T20:35:58.883Z,2.54
2023-12-28T20:41:01.335Z,2.61
2023-12-28T20:46:04.044Z,2.58
2023-12-28T20:51:07.448Z,2.58
2023-12-28T20:56:09.524Z,2.52
2023-12-28T21:01:11.706Z,2.47
2023-12-28T21:06:13.903Z,2.57
2023-12-28T21:11:16.423Z,2.53
2023-12-28T21:16:18.648Z,2.46
2023-12-28T21:21:20.870Z,2.44
2023-12-28T21:26:23.057Z,2.35
2023-12-28T21:31:25.486Z,2.41
2023-12-28T21:36:27.750Z,2.26
2023-12-28T21:41:31.592Z,2.24
2023-12-28T21:46:33.757Z,2.29
2023-12-28T21:51:37.456Z,2.09
2023-12-28T21:56:40.381Z,2.08
2023-12-28T22:01:42.682Z,2.06
2023-12-28T22:06:44.952Z,1.98
2023-12-28T22:11:47.247Z,2.00
2023-12-28T22:16:50.806Z,1.92
2023-12-28T22:21:53.002Z,1.97
2023-12-28T22:26:55.397Z,1.96
2023-12-28T22:31:57.690Z,1.84
2023-12-28T22:36:59.886Z,1.90
2023-12-28T22:42:02.035Z,1.88
2023-12-28T22:47:04.352Z,1.98
2023-12-28T22:52:09.026Z,1.88
2023-12-28T22:57:12.352Z,1.85
2023-12-28T23:02:14.587Z,1.97
2023-12-28T23:07:18.158Z,1.82
2023-12-28T23:12:20.498Z,1.90
2023-12-28T23:17:22.660Z,1.88
2023-12-28T23:22:25.112Z,1.73
2023-12-28T23:27:34.099Z,1.70
2023-12-28T23:32:36.786Z,1.60
2023-12-28T23:37:39.188Z,1.64
2023-12-28T23:42:42.133Z,1.64
2023-12-28T23:47:44.522Z,1.61
2023-12-28T23:52:46.738Z,1.82
2023-12-28T23:57:48.914Z,1.75
